Time;durP1;ratioP1;P1;durP2;ratioP2;P2;SDS_P1;SDS_P2;PMS_P1;PMS_P2;Temp;Humidity;BMP_temperature;BMP_pressure;BME280_temperature;BME280_humidity;BME280_pressure;Samples;Min_cycle;Max_cycle;Signal;HPM_P1;HPM_P2
2023/05/27 00:02:03;;;;;;;22.13;14.60;;;;;;;;;;5031624;28;20041;-65
2023/05/27 00:04:29;;;;;;;22.70;14.25;;;;;;;;;;5028587;28;20041;-64
2023/05/27 00:06:56;;;;;;;23.20;14.55;;;;;;;;;;5014055;28;20044;-66
2023/05/27 00:09:23;;;;;;;21.25;13.80;;;;;;;;;;5030330;28;20045;-65
2023/05/27 00:11:49;;;;;;;21.13;14.05;;;;;;;;;;5032408;28;20042;-67
2023/05/27 00:14:17;;;;;;;24.95;13.80;;;;;;;;;;5031131;28;20077;-64
2023/05/27 00:16:44;;;;;;;24.45;14.70;;;;;;;;;;5031670;28;20049;-64
2023/05/27 00:19:11;;;;;;;23.48;14.60;;;;;;;;;;5031158;28;20453;-64
2023/05/27 00:21:38;;;;;;;22.17;14.05;;;;;;;;;;5030592;28;20102;-66
2023/05/27 00:24:06;;;;;;;23.65;14.18;;;;;;;;;;5031075;28;20409;-65
2023/05/27 00:26:33;;;;;;;24.95;14.38;;;;;;;;;;5030902;28;20122;-64
2023/05/27 00:29:00;;;;;;;23.23;14.93;;;;;;;;;;5030834;28;20088;-65
2023/05/27 00:31:27;;;;;;;24.23;14.88;;;;;;;;;;5029026;28;20109;-65
2023/05/27 00:33:54;;;;;;;21.70;14.60;;;;;;;;;;5029433;28;20135;-64
2023/05/27 00:36:20;;;;;;;24.88;15.98;;;;;;;;;;5028386;28;20569;-67
2023/05/27 00:38:47;;;;;;;25.77;15.13;;;;;;;;;;5031359;28;20418;-64
2023/05/27 00:41:14;;;;;;;25.77;14.45;;;;;;;;;;5030442;28;20033;-62
2023/05/27 00:43:41;;;;;;;25.23;15.00;;;;;;;;;;5031219;28;20659;-63
2023/05/27 00:46:08;;;;;;;28.92;14.85;;;;;;;;;;5032085;28;20585;-64
2023/05/27 00:48:34;;;;;;;23.83;13.68;;;;;;;;;;5026847;28;20040;-66
2023/05/27 00:51:01;;;;;;;23.63;14.02;;;;;;;;;;5030388;28;20427;-65
2023/05/27 00:53:28;;;;;;;22.80;15.10;;;;;;;;;;5029396;28;20214;-63
2023/05/27 00:55:56;;;;;;;22.83;14.38;;;;;;;;;;5031522;28;20538;-65
2023/05/27 00:58:23;;;;;;;24.27;13.77;;;;;;;;;;5029974;28;20033;-63
2023/05/27 01:00:50;;;;;;;24.02;13.82;;;;;;;;;;5030728;28;20048;-64
2023/05/27 01:03:16;;;;;;;24.73;14.20;;;;;;;;;;5030385;28;20037;-63
2023/05/27 01:05:43;;;;;;;25.95;13.82;;;;;;;;;;5031066;28;20426;-64
2023/05/27 01:08:33;;;;;;;23.13;14.02;;;;;;;;;;5031329;28;20044;-64
2023/05/27 01:11:00;;;;;;;24.60;13.70;;;;;;;;;;5022464;28;20115;-64
2023/05/27 01:13:32;;;;;;;20.83;13.20;;;;;;;;;;5026760;28;20362;-64
2023/05/27 01:16:01;;;;;;;22.23;14.40;;;;;;;;;;5029771;28;20049;-64
2023/05/27 01:18:33;;;;;;;21.30;14.10;;;;;;;;;;5027601;28;20115;-63
2023/05/27 01:21:07;;;;;;;25.17;14.10;;;;;;;;;;5027029;28;20493;-63
2023/05/27 01:23:34;;;;;;;22.35;12.63;;;;;;;;;;5026584;28;20110;-64
2023/05/27 01:26:00;;;;;;;22.08;13.43;;;;;;;;;;5028669;28;20407;-62
2023/05/27 01:28:27;;;;;;;22.35;13.55;;;;;;;;;;5028825;28;20045;-64
2023/05/27 01:30:56;;;;;;;23.42;13.65;;;;;;;;;;5030196;28;20033;-64
2023/05/27 01:33:26;;;;;;;19.45;12.90;;;;;;;;;;5030127;28;20045;-65
2023/05/27 01:36:00;;;;;;;23.73;14.73;;;;;;;;;;5031682;28;20033;-64
2023/05/27 01:38:27;;;;;;;25.33;14.82;;;;;;;;;;5029064;28;20033;-64
2023/05/27 01:40:54;;;;;;;23.15;14.23;;;;;;;;;;5030876;28;20524;-63
2023/05/27 01:43:21;;;;;;;23.30;13.90;;;;;;;;;;5029511;28;20036;-64
2023/05/27 01:45:48;;;;;;;24.83;14.02;;;;;;;;;;5030595;28;20033;-62
2023/05/27 01:48:16;;;;;;;24.65;13.77;;;;;;;;;;5030091;28;20033;-65
2023/05/27 01:50:42;;;;;;;23.63;13.77;;;;;;;;;;5026213;28;20128;-63
2023/05/27 01:53:09;;;;;;;22.67;13.68;;;;;;;;;;5030422;28;20129;-63
2023/05/27 01:55:35;;;;;;;21.38;13.65;;;;;;;;;;5028270;28;20119;-65
2023/05/27 01:58:02;;;;;;;23.10;14.63;;;;;;;;;;5027530;28;20126;-65
2023/05/27 02:00:29;;;;;;;25.50;14.98;;;;;;;;;;5028387;28;20410;-65
2023/05/27 02:02:56;;;;;;;22.33;14.27;;;;;;;;;;5028449;28;20122;-65
2023/05/27 02:05:23;;;;;;;27.38;15.57;;;;;;;;;;5026462;28;20086;-65
2023/05/27 02:07:49;;;;;;;26.45;15.40;;;;;;;;;;5028525;28;20053;-64
2023/05/27 02:10:16;;;;;;;26.20;14.98;;;;;;;;;;5029116;28;20046;-65
2023/05/27 02:12:42;;;;;;;26.17;15.93;;;;;;;;;;5026861;28;20033;-65
2023/05/27 02:15:09;;;;;;;24.63;15.40;;;;;;;;;;5029955;28;20612;-65
2023/05/27 02:17:37;;;;;;;27.25;15.60;;;;;;;;;;5026363;28;20052;-64
2023/05/27 02:20:04;;;;;;;27.88;16.17;;;;;;;;;;5029874;28;20178;-64
2023/05/27 02:22:31;;;;;;;25.88;15.30;;;;;;;;;;5024800;28;20114;-64
2023/05/27 02:24:58;;;;;;;26.65;16.13;;;;;;;;;;5027443;28;20330;-65
2023/05/27 02:27:24;;;;;;;25.85;16.88;;;;;;;;;;5026811;28;20529;-65
2023/05/27 02:29:51;;;;;;;29.58;16.33;;;;;;;;;;5029021;28;20220;-65
2023/05/27 02:32:17;;;;;;;24.60;16.15;;;;;;;;;;5029853;28;20048;-64
2023/05/27 02:34:44;;;;;;;27.58;16.17;;;;;;;;;;5030316;28;20041;-64
2023/05/27 02:37:11;;;;;;;27.42;15.43;;;;;;;;;;5031271;28;20033;-65
2023/05/27 02:39:38;;;;;;;27.52;15.45;;;;;;;;;;5032212;28;20124;-65
2023/05/27 02:42:06;;;;;;;24.48;16.08;;;;;;;;;;5029258;28;20099;-64
2023/05/27 02:44:32;;;;;;;28.05;16.58;;;;;;;;;;5029539;28;20131;-65
2023/05/27 02:46:59;;;;;;;29.17;16.30;;;;;;;;;;5032564;28;20090;-65
2023/05/27 02:49:26;;;;;;;25.80;15.90;;;;;;;;;;5030939;28;20129;-65
2023/05/27 02:51:52;;;;;;;26.30;15.88;;;;;;;;;;5029474;28;20033;-65
2023/05/27 02:54:19;;;;;;;27.75;16.00;;;;;;;;;;5028189;28;20149;-65
2023/05/27 02:56:45;;;;;;;28.50;16.92;;;;;;;;;;5032401;28;20054;-65
2023/05/27 02:59:12;;;;;;;29.17;16.05;;;;;;;;;;5032671;28;20445;-65
2023/05/27 03:01:38;;;;;;;31.67;16.95;;;;;;;;;;5030592;28;20083;-64
2023/05/27 03:04:05;;;;;;;29.83;16.55;;;;;;;;;;5030576;28;20040;-64
2023/05/27 03:06:32;;;;;;;27.88;14.90;;;;;;;;;;5033405;28;20033;-65
2023/05/27 03:08:59;;;;;;;30.58;16.13;;;;;;;;;;5033063;28;20045;-65
2023/05/27 03:11:26;;;;;;;32.97;16.65;;;;;;;;;;5029491;28;20446;-64
2023/05/27 03:13:52;;;;;;;31.95;16.00;;;;;;;;;;5031519;28;20051;-65
2023/05/27 03:16:19;;;;;;;25.30;15.98;;;;;;;;;;5031187;28;20038;-64
2023/05/27 03:18:46;;;;;;;33.13;16.77;;;;;;;;;;5030992;28;20090;-62
2023/05/27 03:21:14;;;;;;;27.98;15.38;;;;;;;;;;5032456;28;20061;-67
2023/05/27 03:23:40;;;;;;;26.65;15.63;;;;;;;;;;5030333;28;20124;-65
2023/05/27 03:26:07;;;;;;;29.15;15.90;;;;;;;;;;5031875;28;20047;-66
2023/05/27 03:28:33;;;;;;;32.70;17.33;;;;;;;;;;5031871;28;20037;-63
2023/05/27 03:31:00;;;;;;;26.40;15.48;;;;;;;;;;5031628;28;20478;-64
2023/05/27 03:33:27;;;;;;;28.42;16.13;;;;;;;;;;5028776;28;20091;-65
2023/05/27 03:35:56;;;;;;;30.10;15.90;;;;;;;;;;5031634;28;20057;-69
2023/05/27 03:38:22;;;;;;;27.77;16.55;;;;;;;;;;5030708;28;20040;-69
2023/05/27 03:40:49;;;;;;;25.90;16.60;;;;;;;;;;5029509;28;20056;-69
2023/05/27 03:43:16;;;;;;;33.53;17.23;;;;;;;;;;5028123;28;20743;-70
2023/05/27 03:45:42;;;;;;;30.50;16.40;;;;;;;;;;5030100;28;20501;-69
2023/05/27 03:48:09;;;;;;;28.65;15.95;;;;;;;;;;5031270;28;20045;-69
2023/05/27 03:50:36;;;;;;;32.00;16.50;;;;;;;;;;5030501;28;20422;-70
2023/05/27 03:53:02;;;;;;;33.53;16.23;;;;;;;;;;5030645;28;20041;-69
2023/05/27 03:55:30;;;;;;;29.55;15.45;;;;;;;;;;5031853;28;20040;-70
2023/05/27 03:57:56;;;;;;;30.58;16.75;;;;;;;;;;5031754;28;20067;-68
2023/05/27 04:00:24;;;;;;;34.30;17.38;;;;;;;;;;5029376;28;20466;-68
2023/05/27 04:02:50;;;;;;;29.35;17.35;;;;;;;;;;5028507;28;20052;-69
2023/05/27 04:05:18;;;;;;;31.30;17.17;;;;;;;;;;5030269;28;20115;-69
2023/05/27 04:07:44;;;;;;;32.08;16.20;;;;;;;;;;5030147;28;20132;-68
2023/05/27 04:10:11;;;;;;;28.38;16.40;;;;;;;;;;5030454;28;20037;-69
2023/05/27 04:12:40;;;;;;;36.42;17.48;;;;;;;;;;5019831;28;20132;-69
2023/05/27 04:15:07;;;;;;;30.10;16.42;;;;;;;;;;5030440;28;20402;-68
2023/05/27 04:17:35;;;;;;;24.33;15.07;;;;;;;;;;5012621;28;21770;-69
2023/05/27 04:20:09;;;;;;;28.88;15.70;;;;;;;;;;5031705;28;20132;-69
2023/05/27 04:22:35;;;;;;;30.27;16.00;;;;;;;;;;5026806;28;20064;-68
2023/05/27 04:25:02;;;;;;;27.38;16.13;;;;;;;;;;5023524;28;20042;-69
2023/05/27 04:27:29;;;;;;;27.45;15.48;;;;;;;;;;5031088;28;20033;-69
2023/05/27 04:29:55;;;;;;;31.50;17.67;;;;;;;;;;5025283;28;20046;-69
2023/05/27 04:32:22;;;;;;;34.83;17.00;;;;;;;;;;5029276;28;20041;-70
2023/05/27 04:34:48;;;;;;;28.75;16.65;;;;;;;;;;5028340;28;20095;-70
2023/05/27 04:37:16;;;;;;;26.88;16.60;;;;;;;;;;5029699;28;20052;-69
2023/05/27 04:39:45;;;;;;;26.38;14.73;;;;;;;;;;5030136;28;20037;-69
2023/05/27 04:42:15;;;;;;;30.10;16.08;;;;;;;;;;5029685;28;20064;-69
2023/05/27 04:44:42;;;;;;;28.95;15.45;;;;;;;;;;5028891;28;20103;-69
2023/05/27 04:47:09;;;;;;;32.55;15.63;;;;;;;;;;5030351;28;20128;-69
2023/05/27 04:49:36;;;;;;;32.92;16.33;;;;;;;;;;5029586;28;20045;-69
2023/05/27 04:52:02;;;;;;;27.92;16.40;;;;;;;;;;5029406;28;20041;-70
2023/05/27 04:54:29;;;;;;;33.28;16.63;;;;;;;;;;5029394;28;20048;-69
2023/05/27 04:56:55;;;;;;;36.03;16.48;;;;;;;;;;5029244;28;20056;-68
2023/05/27 04:59:29;;;;;;;29.83;16.92;;;;;;;;;;5028134;28;20455;-69
2023/05/27 05:02:20;;;;;;;27.35;15.10;;;;;;;;;;5019286;28;20037;-68
2023/05/27 05:04:48;;;;;;;33.13;16.95;;;;;;;;;;5026587;28;20049;-69
2023/05/27 05:07:14;;;;;;;31.90;17.10;;;;;;;;;;5021192;28;20052;-69
2023/05/27 05:09:41;;;;;;;32.10;17.15;;;;;;;;;;5030004;28;20122;-68
2023/05/27 05:12:08;;;;;;;34.10;16.65;;;;;;;;;;5030067;28;20120;-68
2023/05/27 05:14:34;;;;;;;30.10;17.35;;;;;;;;;;5028916;28;20053;-69
2023/05/27 05:17:01;;;;;;;32.83;17.65;;;;;;;;;;5030418;28;20787;-69
2023/05/27 05:19:28;;;;;;;29.80;16.25;;;;;;;;;;5028569;28;20050;-68
2023/05/27 05:21:54;;;;;;;31.55;16.70;;;;;;;;;;5030038;28;20411;-69
2023/05/27 05:24:21;;;;;;;35.10;17.30;;;;;;;;;;5018372;28;20045;-69
2023/05/27 05:26:48;;;;;;;30.10;16.15;;;;;;;;;;5029334;28;20040;-69
2023/05/27 05:29:14;;;;;;;33.15;16.92;;;;;;;;;;5030576;28;20147;-70
2023/05/27 05:31:41;;;;;;;29.08;16.67;;;;;;;;;;5027746;28;20145;-69
2023/05/27 05:34:08;;;;;;;29.67;16.23;;;;;;;;;;5029282;28;20095;-70
2023/05/27 05:36:37;;;;;;;37.00;17.92;;;;;;;;;;5027348;28;21100;-70
2023/05/27 05:39:05;;;;;;;34.83;16.85;;;;;;;;;;5027082;28;20131;-69
2023/05/27 05:41:32;;;;;;;32.30;17.65;;;;;;;;;;5018780;28;20958;-69
2023/05/27 05:43:58;;;;;;;31.13;17.42;;;;;;;;;;5030153;28;20033;-68
2023/05/27 05:46:25;;;;;;;35.42;17.50;;;;;;;;;;5026304;28;20045;-69
2023/05/27 05:48:53;;;;;;;31.50;17.15;;;;;;;;;;5027680;28;20095;-70
2023/05/27 05:51:20;;;;;;;31.15;17.33;;;;;;;;;;5027894;28;20039;-70
2023/05/27 05:53:46;;;;;;;33.90;17.80;;;;;;;;;;5029851;28;21144;-69
2023/05/27 05:56:13;;;;;;;31.50;16.77;;;;;;;;;;5030538;28;20045;-69
2023/05/27 05:58:39;;;;;;;33.05;17.00;;;;;;;;;;5027921;28;20048;-68
2023/05/27 06:01:06;;;;;;;32.72;17.67;;;;;;;;;;5028456;28;20049;-68
2023/05/27 06:03:33;;;;;;;30.25;17.27;;;;;;;;;;5026585;28;20653;-68
2023/05/27 06:05:59;;;;;;;35.45;18.10;;;;;;;;;;5027009;28;20033;-69
2023/05/27 06:08:26;;;;;;;38.88;19.25;;;;;;;;;;5031942;28;20075;-69
2023/05/27 06:10:53;;;;;;;36.60;19.52;;;;;;;;;;5034460;28;20040;-68
2023/05/27 06:13:19;;;;;;;37.45;19.23;;;;;;;;;;5030420;28;20060;-69
2023/05/27 06:15:46;;;;;;;34.65;18.35;;;;;;;;;;5026047;28;20532;-68
2023/05/27 06:18:13;;;;;;;39.25;18.48;;;;;;;;;;5032636;28;20064;-66
2023/05/27 06:20:39;;;;;;;34.75;18.00;;;;;;;;;;5031396;28;20560;-67
2023/05/27 06:23:06;;;;;;;31.33;17.00;;;;;;;;;;5033443;28;20053;-69
2023/05/27 06:25:33;;;;;;;34.47;17.73;;;;;;;;;;5031727;28;20406;-70
2023/05/27 06:28:00;;;;;;;38.00;18.20;;;;;;;;;;5032859;28;20049;-68
2023/05/27 06:30:26;;;;;;;34.85;18.25;;;;;;;;;;5032278;28;20065;-69
2023/05/27 06:33:13;;;;;;;37.15;17.60;;;;;;;;;;5010830;28;20347;-68
2023/05/27 06:35:39;;;;;;;31.05;17.63;;;;;;;;;;5010131;28;20453;-69
2023/05/27 06:38:06;;;;;;;37.17;18.45;;;;;;;;;;4995065;28;20045;-68
2023/05/27 06:40:32;;;;;;;32.70;17.63;;;;;;;;;;5010392;28;20046;-69
2023/05/27 06:42:59;;;;;;;37.75;18.60;;;;;;;;;;5008357;28;20088;-68
2023/05/27 06:45:26;;;;;;;35.97;18.05;;;;;;;;;;5010141;28;20052;-68
2023/05/27 06:47:52;;;;;;;36.58;18.20;;;;;;;;;;5011003;28;20077;-68
2023/05/27 06:50:19;;;;;;;39.10;18.65;;;;;;;;;;5011397;28;20073;-69
2023/05/27 06:52:46;;;;;;;35.78;18.90;;;;;;;;;;4995018;28;20057;-68
2023/05/27 06:55:12;;;;;;;32.47;17.20;;;;;;;;;;5011261;28;20497;-70
2023/05/27 06:57:39;;;;;;;37.55;18.38;;;;;;;;;;5009103;28;20069;-69
2023/05/27 07:00:06;;;;;;;31.40;18.27;;;;;;;;;;5010273;28;20050;-69
2023/05/27 07:02:32;;;;;;;33.25;18.35;;;;;;;;;;5009185;28;20045;-69
2023/05/27 07:04:59;;;;;;;39.55;19.75;;;;;;;;;;5028652;28;20037;-69
2023/05/27 07:07:26;;;;;;;31.63;18.25;;;;;;;;;;5031507;28;20124;-69
2023/05/27 07:09:53;;;;;;;34.60;18.13;;;;;;;;;;5031610;28;20171;-68
2023/05/27 07:12:20;;;;;;;34.47;17.63;;;;;;;;;;5031769;28;20083;-69
2023/05/27 07:14:47;;;;;;;36.42;18.40;;;;;;;;;;5030826;28;20045;-68
2023/05/27 07:17:14;;;;;;;34.78;18.90;;;;;;;;;;5033028;28;20057;-69
2023/05/27 07:19:40;;;;;;;35.63;17.13;;;;;;;;;;5031935;28;20042;-69
2023/05/27 07:22:07;;;;;;;32.67;18.08;;;;;;;;;;5037922;28;20043;-68
2023/05/27 07:24:34;;;;;;;34.75;18.90;;;;;;;;;;5030578;28;20049;-69
2023/05/27 07:27:00;;;;;;;31.70;18.00;;;;;;;;;;5032993;28;20138;-70
2023/05/27 07:29:27;;;;;;;30.67;17.23;;;;;;;;;;5031267;28;20048;-68
2023/05/27 07:31:54;;;;;;;36.85;18.20;;;;;;;;;;5034203;28;20092;-69
2023/05/27 07:34:21;;;;;;;34.15;18.55;;;;;;;;;;5031339;28;20667;-69
2023/05/27 07:36:47;;;;;;;34.28;17.80;;;;;;;;;;5033219;28;20037;-69
2023/05/27 07:39:14;;;;;;;34.53;18.63;;;;;;;;;;5032146;28;20037;-70
2023/05/27 07:41:41;;;;;;;38.20;17.77;;;;;;;;;;5030927;28;20113;-68
2023/05/27 07:44:07;;;;;;;35.97;17.27;;;;;;;;;;5031330;28;20409;-69
2023/05/27 07:46:34;;;;;;;38.10;18.00;;;;;;;;;;5032297;28;20115;-69
2023/05/27 07:49:01;;;;;;;35.35;17.05;;;;;;;;;;5030839;28;20041;-68
2023/05/27 07:51:27;;;;;;;33.55;16.80;;;;;;;;;;5030878;28;20441;-68
2023/05/27 07:53:55;;;;;;;34.50;17.92;;;;;;;;;;5033053;28;20068;-68
2023/05/27 07:56:21;;;;;;;31.30;16.85;;;;;;;;;;5030332;28;20159;-68
2023/05/27 07:58:48;;;;;;;32.92;17.10;;;;;;;;;;5031170;28;20503;-68
2023/05/27 08:01:15;;;;;;;32.17;15.82;;;;;;;;;;5031502;28;20520;-69
2023/05/27 08:03:41;;;;;;;36.42;16.80;;;;;;;;;;5030591;28;20098;-69
2023/05/27 08:06:08;;;;;;;33.80;17.20;;;;;;;;;;5032719;28;20553;-68
2023/05/27 08:08:35;;;;;;;33.55;16.10;;;;;;;;;;5031194;28;20030;-67
2023/05/27 08:11:01;;;;;;;35.50;16.27;;;;;;;;;;5031666;28;20068;-68
2023/05/27 08:13:28;;;;;;;35.38;16.98;;;;;;;;;;5028874;28;20052;-69
2023/05/27 08:15:54;;;;;;;30.08;15.13;;;;;;;;;;5032340;28;20033;-68
2023/05/27 08:18:24;;;;;;;37.53;16.33;;;;;;;;;;5030721;28;20105;-69
2023/05/27 08:20:51;;;;;;;32.50;16.08;;;;;;;;;;5033262;28;20038;-68
2023/05/27 08:23:18;;;;;;;31.13;16.02;;;;;;;;;;5030480;28;20083;-68
2023/05/27 08:25:45;;;;;;;28.02;15.52;;;;;;;;;;5033010;28;20075;-69
2023/05/27 08:28:12;;;;;;;29.27;15.75;;;;;;;;;;5028863;28;20793;-68
2023/05/27 08:30:38;;;;;;;31.98;15.13;;;;;;;;;;5030591;28;20045;-67
2023/05/27 08:33:05;;;;;;;29.90;15.30;;;;;;;;;;5030593;28;20408;-69
2023/05/27 08:35:32;;;;;;;28.27;15.05;;;;;;;;;;5029385;28;20040;-69
2023/05/27 08:37:58;;;;;;;27.27;15.32;;;;;;;;;;5028473;28;20033;-69
2023/05/27 08:40:25;;;;;;;32.15;16.58;;;;;;;;;;5030134;28;20067;-68
2023/05/27 08:42:52;;;;;;;29.17;16.08;;;;;;;;;;5030859;28;20049;-68
2023/05/27 08:45:22;;;;;;;33.83;16.17;;;;;;;;;;5029594;28;20351;-68
2023/05/27 08:47:49;;;;;;;31.95;16.13;;;;;;;;;;5030002;28;20091;-68
2023/05/27 08:50:15;;;;;;;31.25;16.80;;;;;;;;;;5030566;28;20102;-69
2023/05/27 08:52:50;;;;;;;32.85;16.10;;;;;;;;;;5030782;28;20887;-69
2023/05/27 08:55:17;;;;;;;33.47;16.30;;;;;;;;;;5031036;28;20076;-68
2023/05/27 08:57:48;;;;;;;38.00;16.23;;;;;;;;;;5030315;28;20064;-69
2023/05/27 09:00:14;;;;;;;31.50;16.58;;;;;;;;;;5034093;28;20513;-69
2023/05/27 09:02:41;;;;;;;32.97;16.75;;;;;;;;;;5031440;28;20060;-68
2023/05/27 09:05:09;;;;;;;30.20;15.23;;;;;;;;;;5033691;28;20131;-68
2023/05/27 09:07:37;;;;;;;28.83;16.25;;;;;;;;;;5032696;28;20041;-69
2023/05/27 09:10:06;;;;;;;32.65;16.45;;;;;;;;;;5033249;28;20382;-70
2023/05/27 09:12:32;;;;;;;31.20;15.82;;;;;;;;;;5031376;28;20617;-69
2023/05/27 09:15:00;;;;;;;28.23;16.23;;;;;;;;;;5030302;28;20121;-68
2023/05/27 09:17:27;;;;;;;25.23;15.40;;;;;;;;;;5030169;28;20048;-70
2023/05/27 09:19:54;;;;;;;32.92;16.30;;;;;;;;;;5030254;28;20115;-70
2023/05/27 09:22:25;;;;;;;30.42;15.98;;;;;;;;;;5030324;28;20099;-70
2023/05/27 09:24:56;;;;;;;26.58;15.98;;;;;;;;;;5030271;28;20108;-67
2023/05/27 09:27:29;;;;;;;30.63;16.63;;;;;;;;;;5029862;28;20153;-69
2023/05/27 09:29:56;;;;;;;30.75;16.80;;;;;;;;;;5030235;28;20043;-69
2023/05/27 09:32:31;;;;;;;27.70;16.50;;;;;;;;;;5026238;28;20048;-70
2023/05/27 09:34:58;;;;;;;31.10;16.63;;;;;;;;;;5030937;28;20048;-69
2023/05/27 09:37:33;;;;;;;35.78;17.85;;;;;;;;;;5024032;28;20045;-69
2023/05/27 09:40:00;;;;;;;32.60;16.70;;;;;;;;;;5029998;28;20116;-69
2023/05/27 09:42:27;;;;;;;30.52;17.17;;;;;;;;;;5028279;28;20162;-69
2023/05/27 09:44:55;;;;;;;28.98;16.17;;;;;;;;;;5030935;28;20132;-69
2023/05/27 09:47:22;;;;;;;28.85;16.65;;;;;;;;;;5030333;28;20037;-70
2023/05/27 09:49:50;;;;;;;35.00;17.88;;;;;;;;;;5028713;28;20052;-68
2023/05/27 09:52:20;;;;;;;34.88;16.40;;;;;;;;;;5029939;28;20051;-69
2023/05/27 09:55:06;;;;;;;32.38;16.27;;;;;;;;;;5005606;28;20076;-69
2023/05/27 09:57:33;;;;;;;31.83;17.10;;;;;;;;;;5007052;28;20255;-69
2023/05/27 10:00:00;;;;;;;33.03;16.63;;;;;;;;;;5007447;28;20048;-69
2023/05/27 10:02:28;;;;;;;29.85;16.42;;;;;;;;;;5006642;28;20083;-69
2023/05/27 10:04:54;;;;;;;35.35;17.42;;;;;;;;;;5004623;28;20609;-69
2023/05/27 10:07:22;;;;;;;32.50;16.85;;;;;;;;;;5006369;28;20120;-69
2023/05/27 10:09:50;;;;;;;32.15;16.35;;;;;;;;;;5008161;28;20063;-68
2023/05/27 10:12:17;;;;;;;33.42;15.95;;;;;;;;;;5005312;28;20094;-68
2023/05/27 10:14:46;;;;;;;30.20;17.05;;;;;;;;;;5005570;28;20534;-69
2023/05/27 10:17:12;;;;;;;34.85;17.60;;;;;;;;;;5005103;28;20060;-69
2023/05/27 10:19:50;;;;;;;29.55;16.30;;;;;;;;;;5007965;28;20679;-69
2023/05/27 10:22:16;;;;;;;32.55;17.13;;;;;;;;;;5007158;28;20101;-68
2023/05/27 10:24:48;;;;;;;32.50;17.08;;;;;;;;;;5007408;28;20049;-69
2023/05/27 10:27:15;;;;;;;35.17;17.05;;;;;;;;;;5028040;28;20044;-67
2023/05/27 10:29:41;;;;;;;33.33;17.27;;;;;;;;;;5026833;28;20052;-67
2023/05/27 10:32:08;;;;;;;34.78;16.95;;;;;;;;;;5029725;28;20041;-66
2023/05/27 10:34:38;;;;;;;35.67;17.20;;;;;;;;;;5030168;28;20041;-68
2023/05/27 10:37:05;;;;;;;36.47;18.70;;;;;;;;;;5028791;28;20555;-67
2023/05/27 10:39:32;;;;;;;34.53;18.52;;;;;;;;;;5029322;28;20071;-67
2023/05/27 10:41:58;;;;;;;36.83;18.90;;;;;;;;;;5030329;28;20053;-68
2023/05/27 10:44:29;;;;;;;41.35;18.63;;;;;;;;;;5029272;28;20340;-68
2023/05/27 10:47:13;;;;;;;32.90;17.42;;;;;;;;;;5031127;28;20049;-68
2023/05/27 10:49:40;;;;;;;32.83;18.35;;;;;;;;;;5029271;28;20087;-68
2023/05/27 10:52:14;;;;;;;39.22;18.63;;;;;;;;;;5030413;28;20056;-68
2023/05/27 10:54:41;;;;;;;32.78;18.38;;;;;;;;;;5032905;28;20090;-69
2023/05/27 10:57:08;;;;;;;39.67;18.70;;;;;;;;;;5034939;28;20049;-68
2023/05/27 10:59:40;;;;;;;37.35;18.38;;;;;;;;;;5033144;28;20044;-67
2023/05/27 11:02:07;;;;;;;34.75;18.60;;;;;;;;;;5032203;28;20557;-69
2023/05/27 11:04:37;;;;;;;38.03;19.70;;;;;;;;;;5031105;28;20063;-69
2023/05/27 11:07:04;;;;;;;38.30;18.70;;;;;;;;;;5032233;28;20045;-68
2023/05/27 11:09:30;;;;;;;34.65;19.13;;;;;;;;;;5032194;28;20553;-68
2023/05/27 11:11:57;;;;;;;40.08;19.15;;;;;;;;;;5029376;28;20552;-69
2023/05/27 11:14:24;;;;;;;41.97;19.85;;;;;;;;;;5030211;28;20069;-67
2023/05/27 11:16:51;;;;;;;40.10;18.70;;;;;;;;;;5033535;28;20049;-67
2023/05/27 11:19:24;;;;;;;33.85;18.45;;;;;;;;;;5031348;28;20041;-69
2023/05/27 11:21:50;;;;;;;39.13;20.30;;;;;;;;;;5031173;28;20051;-68
2023/05/27 11:24:18;;;;;;;44.55;20.23;;;;;;;;;;5033132;28;20045;-68
2023/05/27 11:26:46;;;;;;;38.92;19.83;;;;;;;;;;5029234;28;20049;-68
2023/05/27 11:29:13;;;;;;;37.80;19.60;;;;;;;;;;5032888;28;20065;-68
2023/05/27 11:31:40;;;;;;;38.53;20.27;;;;;;;;;;5031732;28;20056;-70
2023/05/27 11:34:13;;;;;;;43.85;20.90;;;;;;;;;;5032407;28;20148;-65
2023/05/27 11:36:40;;;;;;;39.58;19.85;;;;;;;;;;5032025;28;20477;-67
2023/05/27 11:39:11;;;;;;;40.45;19.98;;;;;;;;;;5029938;28;20771;-64
2023/05/27 11:41:48;;;;;;;42.47;20.23;;;;;;;;;;5030864;28;20048;-70
2023/05/27 11:44:14;;;;;;;42.00;19.55;;;;;;;;;;5030244;28;20046;-69
2023/05/27 11:46:45;;;;;;;40.88;19.98;;;;;;;;;;5029899;28;20037;-68
2023/05/27 11:49:12;;;;;;;46.80;19.88;;;;;;;;;;5030221;28;20033;-69
2023/05/27 11:51:40;;;;;;;43.13;21.05;;;;;;;;;;5032138;28;20159;-68
2023/05/27 11:54:07;;;;;;;42.90;20.67;;;;;;;;;;5033449;28;20040;-68
2023/05/27 11:56:34;;;;;;;44.22;20.20;;;;;;;;;;5030272;28;20374;-63
2023/05/27 11:59:00;;;;;;;42.90;20.30;;;;;;;;;;5025155;28;20048;-68
2023/05/27 12:01:27;;;;;;;45.88;20.73;;;;;;;;;;5032994;28;20037;-64
2023/05/27 12:03:53;;;;;;;40.83;20.42;;;;;;;;;;5034229;28;20045;-65
2023/05/27 12:06:20;;;;;;;42.63;19.05;;;;;;;;;;5030998;28;21857;-64
2023/05/27 12:08:47;;;;;;;41.72;20.38;;;;;;;;;;5028977;28;20044;-64
2023/05/27 12:11:13;;;;;;;40.30;18.73;;;;;;;;;;5029552;28;20343;-64
2023/05/27 12:13:40;;;;;;;43.72;19.77;;;;;;;;;;5028154;28;20045;-65
2023/05/27 12:16:07;;;;;;;35.50;18.77;;;;;;;;;;5030816;28;20065;-64
2023/05/27 12:18:33;;;;;;;51.35;20.35;;;;;;;;;;5030576;28;20041;-66
2023/05/27 12:21:00;;;;;;;40.55;20.30;;;;;;;;;;5032341;28;20071;-67
2023/05/27 12:23:27;;;;;;;39.70;19.13;;;;;;;;;;5014385;28;20056;-65
2023/05/27 12:25:53;;;;;;;43.08;19.85;;;;;;;;;;5030760;28;20037;-66
2023/05/27 12:28:20;;;;;;;42.08;19.15;;;;;;;;;;5013271;28;20041;-65
2023/05/27 12:30:48;;;;;;;44.92;20.38;;;;;;;;;;5029815;28;20064;-65
2023/05/27 12:33:14;;;;;;;42.75;20.15;;;;;;;;;;5032734;28;20041;-65
2023/05/27 12:35:41;;;;;;;40.13;19.50;;;;;;;;;;5031332;28;20045;-67
2023/05/27 12:38:08;;;;;;;45.67;20.45;;;;;;;;;;5032170;28;20068;-65
2023/05/27 12:40:34;;;;;;;45.70;22.33;;;;;;;;;;5031139;28;20056;-68
2023/05/27 12:43:03;;;;;;;45.95;21.40;;;;;;;;;;5031628;28;20045;-66
2023/05/27 12:45:30;;;;;;;45.92;20.67;;;;;;;;;;5028656;28;20048;-67
2023/05/27 12:47:58;;;;;;;41.58;20.42;;;;;;;;;;5032805;28;20049;-67
2023/05/27 12:50:25;;;;;;;37.33;18.73;;;;;;;;;;5030664;28;20052;-67
2023/05/27 12:52:53;;;;;;;43.67;20.88;;;;;;;;;;5031177;28;20374;-67
2023/05/27 12:55:24;;;;;;;42.95;20.60;;;;;;;;;;5008844;28;20428;-67
2023/05/27 12:57:52;;;;;;;44.72;20.10;;;;;;;;;;5028469;28;20048;-67
2023/05/27 13:00:19;;;;;;;36.03;18.88;;;;;;;;;;5030117;28;20090;-67
2023/05/27 13:02:49;;;;;;;41.80;18.95;;;;;;;;;;5027875;28;20084;-64
2023/05/27 13:05:17;;;;;;;33.92;17.10;;;;;;;;;;5021894;28;20164;-61
2023/05/27 13:08:04;;;;;;;38.97;20.10;;;;;;;;;;5028600;28;20059;-61
2023/05/27 13:10:31;;;;;;;33.72;17.90;;;;;;;;;;5032461;28;20477;-63
2023/05/27 13:12:59;;;;;;;30.83;17.02;;;;;;;;;;5029214;28;20061;-62
2023/05/27 13:15:26;;;;;;;30.88;16.02;;;;;;;;;;5031173;28;20095;-62
2023/05/27 13:17:53;;;;;;;27.15;15.52;;;;;;;;;;5031299;28;20033;-63
2023/05/27 13:20:20;;;;;;;29.42;15.90;;;;;;;;;;5026277;28;20086;-62
2023/05/27 13:22:48;;;;;;;31.02;16.52;;;;;;;;;;5030309;28;20045;-65
2023/05/27 13:25:15;;;;;;;33.47;16.70;;;;;;;;;;5028784;28;20041;-63
2023/05/27 13:27:44;;;;;;;32.20;15.63;;;;;;;;;;5028349;28;20037;-64
2023/05/27 13:30:12;;;;;;;34.28;16.38;;;;;;;;;;5030502;28;20048;-62
2023/05/27 13:32:38;;;;;;;27.13;16.00;;;;;;;;;;5026943;28;20133;-64
2023/05/27 13:35:05;;;;;;;30.67;16.27;;;;;;;;;;5027102;28;20740;-64
2023/05/27 13:37:32;;;;;;;29.38;15.80;;;;;;;;;;5028771;28;20060;-67
2023/05/27 13:40:00;;;;;;;31.40;15.25;;;;;;;;;;5030266;28;20041;-68
2023/05/27 13:42:27;;;;;;;26.40;15.05;;;;;;;;;;5026055;28;20549;-68
2023/05/27 13:44:53;;;;;;;26.27;13.48;;;;;;;;;;5026139;28;20041;-67
2023/05/27 13:47:20;;;;;;;25.10;14.07;;;;;;;;;;5029142;28;20080;-68
2023/05/27 13:49:47;;;;;;;28.17;14.02;;;;;;;;;;5030298;28;21714;-68
2023/05/27 13:52:13;;;;;;;22.58;13.15;;;;;;;;;;5028943;28;20038;-67
2023/05/27 13:54:40;;;;;;;20.27;13.23;;;;;;;;;;5029237;28;20041;-69
2023/05/27 13:57:07;;;;;;;21.08;12.77;;;;;;;;;;5029785;28;20052;-69
2023/05/27 13:59:33;;;;;;;22.17;12.65;;;;;;;;;;5029076;28;20041;-69
2023/05/27 14:02:05;;;;;;;23.42;12.52;;;;;;;;;;5020728;28;20079;-68
2023/05/27 14:04:32;;;;;;;20.92;12.00;;;;;;;;;;5028744;28;20817;-67
2023/05/27 14:06:59;;;;;;;22.10;11.88;;;;;;;;;;5028577;28;20033;-69
2023/05/27 14:09:25;;;;;;;22.60;12.30;;;;;;;;;;5029026;28;20064;-68
2023/05/27 14:11:52;;;;;;;21.08;12.15;;;;;;;;;;5020648;28;20513;-68
2023/05/27 14:14:19;;;;;;;20.80;11.95;;;;;;;;;;5010473;28;20143;-68
2023/05/27 14:16:46;;;;;;;19.35;11.88;;;;;;;;;;5023541;28;20056;-68
2023/05/27 14:19:16;;;;;;;20.33;11.70;;;;;;;;;;5029269;28;20502;-70